<?xml version="1.0" encoding="UTF-8" standalone="no" ?>
<gpx xmlns="http://www.topografix.com/GPX/1/1" xmlns:xsi="http://www.w3.org/2001/XMLSchema-instance" xsi:schemaLocation="http://www.topografix.com/GPX/1/1 http://www.topografix.com/GPX/1/1/gpx.xsd" version="1.1" creator="VisuGPX - https://www.visugpx.com">
  <metadata>
    <name>reco entrainement tignes 2011</name>
    <desc><![CDATA[Parcours sur Tignes. ]]></desc>
  </metadata>
  <wpt lat="38.85555" lon="-94.79902">
    <ele>3.01</ele>
    <name><![CDATA[GARMIN]]></name>
  </wpt>
  <wpt lat="50.98288" lon="-1.4639">
    <ele>3.01</ele>
    <name><![CDATA[GRMEUR]]></name>
  </wpt>
  <wpt lat="25.06178" lon="121.64027">
    <ele>3.01</ele>
    <name><![CDATA[GRMTWN]]></name>
  </wpt>
  <trk>
    <name><![CDATA[ACTIVE LOG: 26 JUN 2011 12:03]]></name>
    <trkseg>
      <trkpt lat="45.48325" lon="6.89317">
        <ele>2683.66</ele>
        <time>2011-06-26T10:03:20Z</time>
      </trkpt>
      <trkpt lat="45.48325" lon="6.89317">
        <ele>2689.43</ele>
        <time>2011-06-26T10:03:22Z</time>
      </trkpt>
      <trkpt lat="45.48325" lon="6.89316">
        <ele>2692.79</ele>
        <time>2011-06-26T10:03:23Z</time>
      </trkpt>
      <trkpt lat="45.48325" lon="6.89316">
        <ele>2692.31</ele>
        <time>2011-06-26T10:03:24Z</time>
      </trkpt>
      <trkpt lat="45.48325" lon="6.89316">
        <ele>2698.08</ele>
        <time>2011-06-26T10:03:26Z</time>
      </trkpt>
      <trkpt lat="45.48325" lon="6.89316">
        <ele>2702.4</ele>
        <time>2011-06-26T10:03:28Z</time>
      </trkpt>
      <trkpt lat="45.48325" lon="6.89316">
        <ele>2706.25</ele>
        <time>2011-06-26T10:03:30Z</time>
      </trkpt>
      <trkpt lat="45.48324" lon="6.89315">
        <ele>2710.57</ele>
        <time>2011-06-26T10:03:32Z</time>
      </trkpt>
      <trkpt lat="45.48324" lon="6.89315">
        <ele>2713.94</ele>
        <time>2011-06-26T10:03:33Z</time>
      </trkpt>
      <trkpt lat="45.48324" lon="6.89315">
        <ele>2717.3</ele>
        <time>2011-06-26T10:03:35Z</time>
      </trkpt>
      <trkpt lat="45.48324" lon="6.89315">
        <ele>2721.15</ele>
        <time>2011-06-26T10:03:37Z</time>
      </trkpt>
      <trkpt lat="45.48324" lon="6.89315">
        <ele>2724.03</ele>
        <time>2011-06-26T10:03:39Z</time>
      </trkpt>
      <trkpt lat="45.48324" lon="6.89315">
        <ele>2727.4</ele>
        <time>2011-06-26T10:03:41Z</time>
      </trkpt>
      <trkpt lat="45.48323" lon="6.89314">
        <ele>2731.24</ele>
        <time>2011-06-26T10:03:43Z</time>
      </trkpt>
      <trkpt lat="45.48323" lon="6.89314">
        <ele>2731.24</ele>
        <time>2011-06-26T10:03:44Z</time>
      </trkpt>
      <trkpt lat="45.48323" lon="6.89314">
        <ele>2734.61</ele>
        <time>2011-06-26T10:03:46Z</time>
      </trkpt>
      <trkpt lat="45.48323" lon="6.89314">
        <ele>2739.41</ele>
        <time>2011-06-26T10:03:49Z</time>
      </trkpt>
      <trkpt lat="45.48323" lon="6.89314">
        <ele>2739.41</ele>
        <time>2011-06-26T10:03:50Z</time>
      </trkpt>
      <trkpt lat="45.48323" lon="6.89313">
        <ele>2740.86</ele>
        <time>2011-06-26T10:03:57Z</time>
      </trkpt>
      <trkpt lat="45.48323" lon="6.89313">
        <ele>2748.55</ele>
        <time>2011-06-26T10:03:58Z</time>
      </trkpt>
      <trkpt lat="45.48323" lon="6.89313">
        <ele>2747.59</ele>
        <time>2011-06-26T10:03:59Z</time>
      </trkpt>
    </trkseg>
  </trk>
</gpx>